sensor_id;sensor_type;location;lat;lon;timestamp;temperature;humidity
27781;DHT22;15167;1.318;103.762;2023-08-31T00:02:23;28.10;99.90
27781;DHT22;15167;1.318;103.762;2023-08-31T00:04:53;28.20;99.90
27781;DHT22;15167;1.318;103.762;2023-08-31T00:07:22;28.20;99.90
27781;DHT22;15167;1.318;103.762;2023-08-31T00:09:49;28.20;99.90
27781;DHT22;15167;1.318;103.762;2023-08-31T00:12:15;28.30;99.90
27781;DHT22;15167;1.318;103.762;2023-08-31T00:14:42;28.30;99.90
27781;DHT22;15167;1.318;103.762;2023-08-31T00:17:09;28.40;99.90
27781;DHT22;15167;1.318;103.762;2023-08-31T00:19:35;28.40;99.90
27781;DHT22;15167;1.318;103.762;2023-08-31T00:22:02;28.40;99.90
27781;DHT22;15167;1.318;103.762;2023-08-31T00:24:29;28.60;99.90
27781;DHT22;15167;1.318;103.762;2023-08-31T00:26:59;28.60;99.90
27781;DHT22;15167;1.318;103.762;2023-08-31T00:29:26;28.60;99.90
27781;DHT22;15167;1.318;103.762;2023-08-31T00:31:53;28.60;99.90
27781;DHT22;15167;1.318;103.762;2023-08-31T00:34:20;28.70;99.90
27781;DHT22;15167;1.318;103.762;2023-08-31T00:36:46;28.70;91.20
27781;DHT22;15167;1.318;103.762;2023-08-31T00:39:13;28.80;49.40
27781;DHT22;15167;1.318;103.762;2023-08-31T00:41:40;28.90;5.10
27781;DHT22;15167;1.318;103.762;2023-08-31T00:44:06;29.00;1.00
27781;DHT22;15167;1.318;103.762;2023-08-31T00:46:34;29.10;1.00
27781;DHT22;15167;1.318;103.762;2023-08-31T00:49:02;29.20;1.00
27781;DHT22;15167;1.318;103.762;2023-08-31T00:51:30;29.20;1.00
27781;DHT22;15167;1.318;103.762;2023-08-31T00:53:57;29.30;1.00
27781;DHT22;15167;1.318;103.762;2023-08-31T00:56:25;29.30;99.90
27781;DHT22;15167;1.318;103.762;2023-08-31T00:58:52;29.30;99.90
27781;DHT22;15167;1.318;103.762;2023-08-31T01:09:39;29.40;99.90
27781;DHT22;15167;1.318;103.762;2023-08-31T01:12:54;29.40;99.90
27781;DHT22;15167;1.318;103.762;2023-08-31T01:15:05;29.30;99.90
27781;DHT22;15167;1.318;103.762;2023-08-31T01:17:40;29.30;70.30
27781;DHT22;15167;1.318;103.762;2023-08-31T01:20:11;29.30;14.70
27781;DHT22;15167;1.318;103.762;2023-08-31T01:22:47;29.30;1.00
27781;DHT22;15167;1.318;103.762;2023-08-31T01:25:15;29.30;1.00
27781;DHT22;15167;1.318;103.762;2023-08-31T01:27:42;29.40;1.00
27781;DHT22;15167;1.318;103.762;2023-08-31T01:30:09;29.40;1.00
27781;DHT22;15167;1.318;103.762;2023-08-31T01:32:35;29.50;1.00
27781;DHT22;15167;1.318;103.762;2023-08-31T01:35:03;29.40;1.00
27781;DHT22;15167;1.318;103.762;2023-08-31T01:40:16;29.50;1.00
27781;DHT22;15167;1.318;103.762;2023-08-31T01:42:46;29.50;1.00
27781;DHT22;15167;1.318;103.762;2023-08-31T01:45:21;29.60;1.00
27781;DHT22;15167;1.318;103.762;2023-08-31T01:47:49;29.70;99.90
27781;DHT22;15167;1.318;103.762;2023-08-31T01:50:15;29.80;99.90
27781;DHT22;15167;1.318;103.762;2023-08-31T01:52:42;29.90;99.90
27781;DHT22;15167;1.318;103.762;2023-08-31T01:55:09;30.00;99.90
27781;DHT22;15167;1.318;103.762;2023-08-31T01:57:35;30.00;99.90
27781;DHT22;15167;1.318;103.762;2023-08-31T02:00:02;29.90;99.90
27781;DHT22;15167;1.318;103.762;2023-08-31T02:02:30;30.00;99.90
27781;DHT22;15167;1.318;103.762;2023-08-31T02:04:57;30.10;99.90
27781;DHT22;15167;1.318;103.762;2023-08-31T02:07:27;30.10;99.90
27781;DHT22;15167;1.318;103.762;2023-08-31T02:09:54;30.10;99.90
27781;DHT22;15167;1.318;103.762;2023-08-31T02:12:21;30.10;99.90
27781;DHT22;15167;1.318;103.762;2023-08-31T02:14:48;30.10;99.90
27781;DHT22;15167;1.318;103.762;2023-08-31T02:17:14;30.20;99.90
27781;DHT22;15167;1.318;103.762;2023-08-31T02:19:41;30.20;99.90
27781;DHT22;15167;1.318;103.762;2023-08-31T02:22:08;30.20;99.90
27781;DHT22;15167;1.318;103.762;2023-08-31T02:24:34;30.30;99.90
27781;DHT22;15167;1.318;103.762;2023-08-31T02:27:01;30.50;7.20
27781;DHT22;15167;1.318;103.762;2023-08-31T02:29:28;30.50;1.00
27781;DHT22;15167;1.318;103.762;2023-08-31T02:31:54;30.50;1.00
27781;DHT22;15167;1.318;103.762;2023-08-31T02:34:21;30.60;1.00
27781;DHT22;15167;1.318;103.762;2023-08-31T02:36:47;30.60;1.00
27781;DHT22;15167;1.318;103.762;2023-08-31T02:39:14;30.60;1.00
27781;DHT22;15167;1.318;103.762;2023-08-31T02:41:41;30.60;1.00
27781;DHT22;15167;1.318;103.762;2023-08-31T02:44:08;30.60;1.00
27781;DHT22;15167;1.318;103.762;2023-08-31T02:46:34;30.50;1.00
27781;DHT22;15167;1.318;103.762;2023-08-31T02:49:01;30.50;40.40
27781;DHT22;15167;1.318;103.762;2023-08-31T02:51:28;30.40;18.40
27781;DHT22;15167;1.318;103.762;2023-08-31T02:53:54;30.40;1.00
27781;DHT22;15167;1.318;103.762;2023-08-31T02:56:21;30.30;1.00
27781;DHT22;15167;1.318;103.762;2023-08-31T02:58:47;30.30;1.00
27781;DHT22;15167;1.318;103.762;2023-08-31T03:01:14;30.30;1.00
27781;DHT22;15167;1.318;103.762;2023-08-31T03:03:42;30.40;1.00
27781;DHT22;15167;1.318;103.762;2023-08-31T03:06:09;30.50;1.00
27781;DHT22;15167;1.318;103.762;2023-08-31T03:08:36;30.60;99.90
27781;DHT22;15167;1.318;103.762;2023-08-31T03:11:04;30.90;99.90
27781;DHT22;15167;1.318;103.762;2023-08-31T03:13:32;31.10;99.90
27781;DHT22;15167;1.318;103.762;2023-08-31T03:16:00;31.20;99.90
27781;DHT22;15167;1.318;103.762;2023-08-31T03:18:27;31.20;63.30
27781;DHT22;15167;1.318;103.762;2023-08-31T03:20:54;31.10;95.40
27781;DHT22;15167;1.318;103.762;2023-08-31T03:23:21;31.10;99.90
27781;DHT22;15167;1.318;103.762;2023-08-31T03:25:48;31.00;99.90
27781;DHT22;15167;1.318;103.762;2023-08-31T03:28:15;31.00;99.90
27781;DHT22;15167;1.318;103.762;2023-08-31T03:30:41;31.10;95.20
27781;DHT22;15167;1.318;103.762;2023-08-31T03:33:11;31.10;99.90
27781;DHT22;15167;1.318;103.762;2023-08-31T03:35:38;31.20;1.00
27781;DHT22;15167;1.318;103.762;2023-08-31T03:38:05;31.30;1.00
27781;DHT22;15167;1.318;103.762;2023-08-31T03:40:31;31.20;32.30
27781;DHT22;15167;1.318;103.762;2023-08-31T03:42:58;31.10;99.90
27781;DHT22;15167;1.318;103.762;2023-08-31T03:45:25;30.90;99.90
27781;DHT22;15167;1.318;103.762;2023-08-31T03:47:51;30.80;99.90
27781;DHT22;15167;1.318;103.762;2023-08-31T03:50:18;30.60;99.90
27781;DHT22;15167;1.318;103.762;2023-08-31T03:52:44;30.50;99.90
27781;DHT22;15167;1.318;103.762;2023-08-31T03:55:11;30.50;99.90
27781;DHT22;15167;1.318;103.762;2023-08-31T03:57:37;30.40;99.90
27781;DHT22;15167;1.318;103.762;2023-08-31T04:00:04;30.40;99.90
27781;DHT22;15167;1.318;103.762;2023-08-31T04:02:38;30.30;99.90
27781;DHT22;15167;1.318;103.762;2023-08-31T04:05:05;30.10;99.90
27781;DHT22;15167;1.318;103.762;2023-08-31T04:07:33;30.00;99.90
27781;DHT22;15167;1.318;103.762;2023-08-31T04:10:00;30.10;99.90
27781;DHT22;15167;1.318;103.762;2023-08-31T04:12:27;30.20;99.90
27781;DHT22;15167;1.318;103.762;2023-08-31T04:14:55;30.30;99.90
27781;DHT22;15167;1.318;103.762;2023-08-31T04:17:22;30.30;99.90
27781;DHT22;15167;1.318;103.762;2023-08-31T04:19:50;30.30;99.90
27781;DHT22;15167;1.318;103.762;2023-08-31T04:22:17;30.20;99.90
27781;DHT22;15167;1.318;103.762;2023-08-31T04:24:43;30.40;99.90
27781;DHT22;15167;1.318;103.762;2023-08-31T04:27:10;30.50;99.90
27781;DHT22;15167;1.318;103.762;2023-08-31T04:29:36;30.70;99.90
27781;DHT22;15167;1.318;103.762;2023-08-31T04:32:03;30.90;1.00
27781;DHT22;15167;1.318;103.762;2023-08-31T04:34:30;31.20;1.00
27781;DHT22;15167;1.318;103.762;2023-08-31T04:36:56;31.40;99.90
27781;DHT22;15167;1.318;103.762;2023-08-31T04:39:23;31.60;13.70
27781;DHT22;15167;1.318;103.762;2023-08-31T04:41:50;31.60;31.00
27781;DHT22;15167;1.318;103.762;2023-08-31T04:44:16;31.70;1.00
27781;DHT22;15167;1.318;103.762;2023-08-31T04:46:43;31.90;1.00
27781;DHT22;15167;1.318;103.762;2023-08-31T04:49:09;31.90;99.90
27781;DHT22;15167;1.318;103.762;2023-08-31T04:51:36;32.00;99.90
27781;DHT22;15167;1.318;103.762;2023-08-31T04:54:07;31.90;99.90
27781;DHT22;15167;1.318;103.762;2023-08-31T04:56:34;31.90;99.90
27781;DHT22;15167;1.318;103.762;2023-08-31T04:59:01;31.90;99.90
27781;DHT22;15167;1.318;103.762;2023-08-31T05:01:28;32.00;99.90
27781;DHT22;15167;1.318;103.762;2023-08-31T05:03:55;32.10;98.80
27781;DHT22;15167;1.318;103.762;2023-08-31T05:06:22;31.90;99.90
27781;DHT22;15167;1.318;103.762;2023-08-31T05:08:48;32.10;99.90
27781;DHT22;15167;1.318;103.762;2023-08-31T05:11:15;32.10;1.00
27781;DHT22;15167;1.318;103.762;2023-08-31T05:13:42;32.10;1.00
27781;DHT22;15167;1.318;103.762;2023-08-31T05:16:09;32.40;99.90
27781;DHT22;15167;1.318;103.762;2023-08-31T05:18:36;32.30;99.90
27781;DHT22;15167;1.318;103.762;2023-08-31T05:21:03;32.20;99.90
27781;DHT22;15167;1.318;103.762;2023-08-31T05:23:30;32.30;99.90
27781;DHT22;15167;1.318;103.762;2023-08-31T05:25:57;32.40;99.90
27781;DHT22;15167;1.318;103.762;2023-08-31T05:28:24;32.50;56.30
27781;DHT22;15167;1.318;103.762;2023-08-31T05:30:52;32.60;99.90
27781;DHT22;15167;1.318;103.762;2023-08-31T05:33:20;32.60;56.60
27781;DHT22;15167;1.318;103.762;2023-08-31T05:35:48;32.60;56.20
27781;DHT22;15167;1.318;103.762;2023-08-31T05:38:15;32.60;1.00
27781;DHT22;15167;1.318;103.762;2023-08-31T05:40:41;32.40;1.00
27781;DHT22;15167;1.318;103.762;2023-08-31T05:43:15;32.40;1.00
27781;DHT22;15167;1.318;103.762;2023-08-31T05:45:42;32.20;7.40
27781;DHT22;15167;1.318;103.762;2023-08-31T05:48:09;32.10;1.00
27781;DHT22;15167;1.318;103.762;2023-08-31T05:50:35;32.10;1.00
27781;DHT22;15167;1.318;103.762;2023-08-31T05:53:03;32.00;1.00
27781;DHT22;15167;1.318;103.762;2023-08-31T05:55:30;32.10;1.00
27781;DHT22;15167;1.318;103.762;2023-08-31T05:57:57;32.10;22.40
27781;DHT22;15167;1.318;103.762;2023-08-31T06:00:24;32.30;1.00
27781;DHT22;15167;1.318;103.762;2023-08-31T06:02:51;32.50;1.00
27781;DHT22;15167;1.318;103.762;2023-08-31T06:05:17;32.70;99.90
27781;DHT22;15167;1.318;103.762;2023-08-31T06:07:44;32.80;99.90
27781;DHT22;15167;1.318;103.762;2023-08-31T06:10:11;32.90;99.90
27781;DHT22;15167;1.318;103.762;2023-08-31T06:12:38;32.90;99.90
27781;DHT22;15167;1.318;103.762;2023-08-31T06:15:05;33.00;99.90
27781;DHT22;15167;1.318;103.762;2023-08-31T06:17:31;33.10;99.90
27781;DHT22;15167;1.318;103.762;2023-08-31T06:19:58;32.90;99.90
27781;DHT22;15167;1.318;103.762;2023-08-31T06:22:24;32.90;99.90
27781;DHT22;15167;1.318;103.762;2023-08-31T06:24:51;32.80;99.90
27781;DHT22;15167;1.318;103.762;2023-08-31T06:27:18;32.90;99.90
27781;DHT22;15167;1.318;103.762;2023-08-31T06:29:44;33.00;99.90
27781;DHT22;15167;1.318;103.762;2023-08-31T06:32:11;33.00;99.90
27781;DHT22;15167;1.318;103.762;2023-08-31T06:34:38;33.00;99.90
27781;DHT22;15167;1.318;103.762;2023-08-31T06:37:04;33.00;99.90
27781;DHT22;15167;1.318;103.762;2023-08-31T06:39:31;33.00;99.90
27781;DHT22;15167;1.318;103.762;2023-08-31T06:41:59;32.90;99.90
27781;DHT22;15167;1.318;103.762;2023-08-31T06:44:25;32.90;99.30
27781;DHT22;15167;1.318;103.762;2023-08-31T06:46:54;32.90;90.60
27781;DHT22;15167;1.318;103.762;2023-08-31T06:49:21;33.00;66.60
27781;DHT22;15167;1.318;103.762;2023-08-31T06:51:48;33.00;72.60
27781;DHT22;15167;1.318;103.762;2023-08-31T06:54:15;32.90;99.90
27781;DHT22;15167;1.318;103.762;2023-08-31T06:56:41;32.90;99.90
27781;DHT22;15167;1.318;103.762;2023-08-31T06:59:08;32.90;99.90
27781;DHT22;15167;1.318;103.762;2023-08-31T07:01:35;32.90;99.90
27781;DHT22;15167;1.318;103.762;2023-08-31T07:04:01;33.00;73.30
27781;DHT22;15167;1.318;103.762;2023-08-31T07:06:31;33.00;14.10
27781;DHT22;15167;1.318;103.762;2023-08-31T07:08:58;32.90;2.80
27781;DHT22;15167;1.318;103.762;2023-08-31T07:11:24;32.90;1.00
27781;DHT22;15167;1.318;103.762;2023-08-31T07:13:52;32.90;1.00
27781;DHT22;15167;1.318;103.762;2023-08-31T07:16:19;32.70;9.40
27781;DHT22;15167;1.318;103.762;2023-08-31T07:18:46;32.50;16.20
27781;DHT22;15167;1.318;103.762;2023-08-31T07:21:12;32.40;49.60
27781;DHT22;15167;1.318;103.762;2023-08-31T07:23:39;32.30;83.50
27781;DHT22;15167;1.318;103.762;2023-08-31T07:26:05;32.30;99.90
27781;DHT22;15167;1.318;103.762;2023-08-31T07:28:32;32.30;99.90
27781;DHT22;15167;1.318;103.762;2023-08-31T07:31:05;32.10;99.90
27781;DHT22;15167;1.318;103.762;2023-08-31T07:33:33;32.00;99.90
27781;DHT22;15167;1.318;103.762;2023-08-31T07:36:02;31.90;99.90
27781;DHT22;15167;1.318;103.762;2023-08-31T07:38:30;31.90;99.90
27781;DHT22;15167;1.318;103.762;2023-08-31T07:40:57;31.80;99.90
27781;DHT22;15167;1.318;103.762;2023-08-31T07:43:25;31.70;99.90
27781;DHT22;15167;1.318;103.762;2023-08-31T07:45:53;31.70;1.00
27781;DHT22;15167;1.318;103.762;2023-08-31T07:48:19;31.90;1.00
27781;DHT22;15167;1.318;103.762;2023-08-31T07:50:46;31.90;1.00
27781;DHT22;15167;1.318;103.762;2023-08-31T07:53:12;32.00;1.00
27781;DHT22;15167;1.318;103.762;2023-08-31T07:55:40;32.10;99.90
27781;DHT22;15167;1.318;103.762;2023-08-31T08:00:33;32.10;1.00
27781;DHT22;15167;1.318;103.762;2023-08-31T08:02:59;32.00;1.00
27781;DHT22;15167;1.318;103.762;2023-08-31T08:05:27;32.10;1.00
27781;DHT22;15167;1.318;103.762;2023-08-31T08:07:54;32.20;1.00
27781;DHT22;15167;1.318;103.762;2023-08-31T08:10:20;32.20;1.00
27781;DHT22;15167;1.318;103.762;2023-08-31T08:12:47;32.20;1.00
27781;DHT22;15167;1.318;103.762;2023-08-31T08:15:13;32.20;1.00
27781;DHT22;15167;1.318;103.762;2023-08-31T08:17:40;32.30;1.00
27781;DHT22;15167;1.318;103.762;2023-08-31T08:20:07;32.40;1.00
27781;DHT22;15167;1.318;103.762;2023-08-31T08:22:35;32.50;1.00
27781;DHT22;15167;1.318;103.762;2023-08-31T08:25:02;32.60;1.00
27781;DHT22;15167;1.318;103.762;2023-08-31T08:27:28;32.50;99.90
27781;DHT22;15167;1.318;103.762;2023-08-31T08:29:55;32.50;1.00
27781;DHT22;15167;1.318;103.762;2023-08-31T08:32:21;32.50;1.00
27781;DHT22;15167;1.318;103.762;2023-08-31T08:34:48;32.50;1.00
27781;DHT22;15167;1.318;103.762;2023-08-31T08:37:15;32.50;1.00
27781;DHT22;15167;1.318;103.762;2023-08-31T08:39:41;32.50;1.00
27781;DHT22;15167;1.318;103.762;2023-08-31T08:42:11;32.60;1.00
27781;DHT22;15167;1.318;103.762;2023-08-31T08:44:39;32.60;1.00
27781;DHT22;15167;1.318;103.762;2023-08-31T08:47:06;32.70;99.90
27781;DHT22;15167;1.318;103.762;2023-08-31T08:49:33;32.90;99.90
27781;DHT22;15167;1.318;103.762;2023-08-31T08:52:02;32.90;99.90
27781;DHT22;15167;1.318;103.762;2023-08-31T08:54:29;32.90;99.90
27781;DHT22;15167;1.318;103.762;2023-08-31T08:56:57;32.80;99.90
27781;DHT22;15167;1.318;103.762;2023-08-31T08:59:24;32.80;99.90
27781;DHT22;15167;1.318;103.762;2023-08-31T09:01:51;32.70;99.90
27781;DHT22;15167;1.318;103.762;2023-08-31T09:04:17;32.50;99.90
27781;DHT22;15167;1.318;103.762;2023-08-31T09:06:45;32.30;99.90
27781;DHT22;15167;1.318;103.762;2023-08-31T09:09:11;32.10;99.90
27781;DHT22;15167;1.318;103.762;2023-08-31T09:11:38;31.80;1.00
27781;DHT22;15167;1.318;103.762;2023-08-31T09:14:19;31.60;93.30
27781;DHT22;15167;1.318;103.762;2023-08-31T09:16:47;31.50;99.90
27781;DHT22;15167;1.318;103.762;2023-08-31T09:19:24;31.40;99.90
27781;DHT22;15167;1.318;103.762;2023-08-31T09:21:56;31.30;99.90
27781;DHT22;15167;1.318;103.762;2023-08-31T09:24:23;31.20;99.90
27781;DHT22;15167;1.318;103.762;2023-08-31T09:26:54;31.20;1.00
27781;DHT22;15167;1.318;103.762;2023-08-31T09:29:22;31.20;26.50
27781;DHT22;15167;1.318;103.762;2023-08-31T09:31:48;31.10;99.90
27781;DHT22;15167;1.318;103.762;2023-08-31T09:34:16;31.00;99.90
27781;DHT22;15167;1.318;103.762;2023-08-31T09:36:43;30.90;99.90
27781;DHT22;15167;1.318;103.762;2023-08-31T09:39:10;30.80;1.00
27781;DHT22;15167;1.318;103.762;2023-08-31T09:41:54;30.70;39.00
27781;DHT22;15167;1.318;103.762;2023-08-31T09:44:21;30.70;99.90
27781;DHT22;15167;1.318;103.762;2023-08-31T09:46:48;30.60;99.90
27781;DHT22;15167;1.318;103.762;2023-08-31T09:49:16;30.60;65.00
27781;DHT22;15167;1.318;103.762;2023-08-31T09:51:51;30.60;66.90
27781;DHT22;15167;1.318;103.762;2023-08-31T09:54:19;30.60;99.90
27781;DHT22;15167;1.318;103.762;2023-08-31T09:56:48;30.60;99.90
27781;DHT22;15167;1.318;103.762;2023-08-31T09:59:15;30.50;99.90
27781;DHT22;15167;1.318;103.762;2023-08-31T10:01:44;30.50;1.00
27781;DHT22;15167;1.318;103.762;2023-08-31T10:04:11;30.50;1.00
27781;DHT22;15167;1.318;103.762;2023-08-31T10:06:42;30.50;99.90
27781;DHT22;15167;1.318;103.762;2023-08-31T10:09:10;30.50;99.90
27781;DHT22;15167;1.318;103.762;2023-08-31T10:11:39;30.50;99.90
27781;DHT22;15167;1.318;103.762;2023-08-31T10:14:06;30.50;99.90
27781;DHT22;15167;1.318;103.762;2023-08-31T10:16:34;30.50;99.90
27781;DHT22;15167;1.318;103.762;2023-08-31T10:19:01;30.50;99.90
27781;DHT22;15167;1.318;103.762;2023-08-31T10:21:29;30.50;99.90
27781;DHT22;15167;1.318;103.762;2023-08-31T10:23:56;30.40;99.90
27781;DHT22;15167;1.318;103.762;2023-08-31T10:26:27;30.50;99.90
27781;DHT22;15167;1.318;103.762;2023-08-31T10:28:55;30.40;99.90
27781;DHT22;15167;1.318;103.762;2023-08-31T10:31:28;30.40;99.90
27781;DHT22;15167;1.318;103.762;2023-08-31T10:34:02;30.30;99.90
27781;DHT22;15167;1.318;103.762;2023-08-31T10:36:45;30.30;99.90
27781;DHT22;15167;1.318;103.762;2023-08-31T10:39:13;30.30;99.90
27781;DHT22;15167;1.318;103.762;2023-08-31T10:41:42;30.30;99.90
27781;DHT22;15167;1.318;103.762;2023-08-31T10:44:30;30.20;99.90
27781;DHT22;15167;1.318;103.762;2023-08-31T10:47:00;30.20;1.00
27781;DHT22;15167;1.318;103.762;2023-08-31T10:49:29;30.10;1.00
27781;DHT22;15167;1.318;103.762;2023-08-31T10:52:16;30.10;1.00
27781;DHT22;15167;1.318;103.762;2023-08-31T10:54:47;30.10;1.00
27781;DHT22;15167;1.318;103.762;2023-08-31T10:57:14;30.00;1.00
27781;DHT22;15167;1.318;103.762;2023-08-31T10:59:44;29.90;1.00
27781;DHT22;15167;1.318;103.762;2023-08-31T11:02:12;29.90;93.40
27781;DHT22;15167;1.318;103.762;2023-08-31T11:04:55;29.80;99.90
27781;DHT22;15167;1.318;103.762;2023-08-31T11:07:27;29.80;99.90
27781;DHT22;15167;1.318;103.762;2023-08-31T11:10:25;29.80;99.90
27781;DHT22;15167;1.318;103.762;2023-08-31T11:12:55;29.80;99.90
27781;DHT22;15167;1.318;103.762;2023-08-31T11:15:27;29.80;99.90
27781;DHT22;15167;1.318;103.762;2023-08-31T11:17:56;29.80;99.90
27781;DHT22;15167;1.318;103.762;2023-08-31T11:20:24;29.80;1.00
27781;DHT22;15167;1.318;103.762;2023-08-31T11:22:54;29.80;45.60
27781;DHT22;15167;1.318;103.762;2023-08-31T11:25:22;29.70;97.50
27781;DHT22;15167;1.318;103.762;2023-08-31T11:27:59;29.70;99.90
27781;DHT22;15167;1.318;103.762;2023-08-31T11:30:28;29.70;99.90
27781;DHT22;15167;1.318;103.762;2023-08-31T11:33:01;29.60;99.90
27781;DHT22;15167;1.318;103.762;2023-08-31T11:35:34;29.60;99.90
27781;DHT22;15167;1.318;103.762;2023-08-31T11:38:02;29.60;99.90
27781;DHT22;15167;1.318;103.762;2023-08-31T11:40:32;29.60;99.90
27781;DHT22;15167;1.318;103.762;2023-08-31T11:42:59;29.50;99.90
27781;DHT22;15167;1.318;103.762;2023-08-31T11:45:36;29.40;1.00
27781;DHT22;15167;1.318;103.762;2023-08-31T11:48:04;29.40;99.90
27781;DHT22;15167;1.318;103.762;2023-08-31T11:50:31;29.40;99.90
27781;DHT22;15167;1.318;103.762;2023-08-31T11:52:58;29.40;99.90
27781;DHT22;15167;1.318;103.762;2023-08-31T11:55:25;29.40;99.90
27781;DHT22;15167;1.318;103.762;2023-08-31T11:57:52;29.30;99.90
27781;DHT22;15167;1.318;103.762;2023-08-31T12:00:21;29.30;99.90
27781;DHT22;15167;1.318;103.762;2023-08-31T12:03:03;29.30;99.90
27781;DHT22;15167;1.318;103.762;2023-08-31T12:05:52;29.30;99.90
27781;DHT22;15167;1.318;103.762;2023-08-31T12:08:27;29.30;99.90
27781;DHT22;15167;1.318;103.762;2023-08-31T12:10:54;29.30;99.90
27781;DHT22;15167;1.318;103.762;2023-08-31T12:13:26;29.30;99.90
27781;DHT22;15167;1.318;103.762;2023-08-31T12:15:55;29.20;99.90
27781;DHT22;15167;1.318;103.762;2023-08-31T12:18:22;29.30;99.90
27781;DHT22;15167;1.318;103.762;2023-08-31T12:20:52;29.30;99.90
27781;DHT22;15167;1.318;103.762;2023-08-31T12:23:19;29.20;99.90
27781;DHT22;15167;1.318;103.762;2023-08-31T12:28:20;29.20;99.90
27781;DHT22;15167;1.318;103.762;2023-08-31T12:30:54;29.20;99.90
27781;DHT22;15167;1.318;103.762;2023-08-31T12:33:24;29.20;99.90
27781;DHT22;15167;1.318;103.762;2023-08-31T12:35:51;29.20;99.90
27781;DHT22;15167;1.318;103.762;2023-08-31T12:38:17;29.20;99.90
27781;DHT22;15167;1.318;103.762;2023-08-31T12:40:45;29.10;99.90
27781;DHT22;15167;1.318;103.762;2023-08-31T12:43:12;29.10;99.90
27781;DHT22;15167;1.318;103.762;2023-08-31T12:45:40;29.20;99.90
27781;DHT22;15167;1.318;103.762;2023-08-31T12:48:06;29.10;99.90
27781;DHT22;15167;1.318;103.762;2023-08-31T12:50:33;29.10;57.90
27781;DHT22;15167;1.318;103.762;2023-08-31T12:53:00;29.10;1.00
27781;DHT22;15167;1.318;103.762;2023-08-31T12:55:26;29.10;1.00
27781;DHT22;15167;1.318;103.762;2023-08-31T12:57:53;29.10;1.00
27781;DHT22;15167;1.318;103.762;2023-08-31T13:00:19;29.10;99.90
27781;DHT22;15167;1.318;103.762;2023-08-31T13:02:46;29.10;99.90
27781;DHT22;15167;1.318;103.762;2023-08-31T13:05:13;29.10;99.90
27781;DHT22;15167;1.318;103.762;2023-08-31T13:07:39;29.20;93.20
27781;DHT22;15167;1.318;103.762;2023-08-31T13:10:06;29.10;92.80
27781;DHT22;15167;1.318;103.762;2023-08-31T13:12:33;29.10;97.40
27781;DHT22;15167;1.318;103.762;2023-08-31T13:15:00;29.10;8.30
27781;DHT22;15167;1.318;103.762;2023-08-31T13:17:27;29.10;1.00
27781;DHT22;15167;1.318;103.762;2023-08-31T13:19:56;29.10;1.00
27781;DHT22;15167;1.318;103.762;2023-08-31T13:22:23;29.10;1.00
27781;DHT22;15167;1.318;103.762;2023-08-31T13:24:51;29.10;1.00
27781;DHT22;15167;1.318;103.762;2023-08-31T13:27:18;29.10;99.90
27781;DHT22;15167;1.318;103.762;2023-08-31T13:29:45;29.20;99.90
27781;DHT22;15167;1.318;103.762;2023-08-31T13:32:11;29.10;99.90
27781;DHT22;15167;1.318;103.762;2023-08-31T13:34:38;29.10;99.90
27781;DHT22;15167;1.318;103.762;2023-08-31T13:37:05;29.10;99.90
27781;DHT22;15167;1.318;103.762;2023-08-31T13:39:33;29.10;99.90
27781;DHT22;15167;1.318;103.762;2023-08-31T13:42:01;29.10;99.90
27781;DHT22;15167;1.318;103.762;2023-08-31T13:44:30;29.10;99.90
27781;DHT22;15167;1.318;103.762;2023-08-31T13:46:57;29.10;1.00
27781;DHT22;15167;1.318;103.762;2023-08-31T13:49:23;29.10;99.90
27781;DHT22;15167;1.318;103.762;2023-08-31T13:51:50;29.10;1.00
27781;DHT22;15167;1.318;103.762;2023-08-31T13:54:17;29.00;1.00
27781;DHT22;15167;1.318;103.762;2023-08-31T13:56:43;29.00;1.00
27781;DHT22;15167;1.318;103.762;2023-08-31T13:59:10;29.00;1.00
27781;DHT22;15167;1.318;103.762;2023-08-31T14:01:37;29.00;1.00
27781;DHT22;15167;1.318;103.762;2023-08-31T14:04:04;29.10;1.00
27781;DHT22;15167;1.318;103.762;2023-08-31T14:06:30;29.10;1.00
27781;DHT22;15167;1.318;103.762;2023-08-31T14:08:57;29.10;99.90
27781;DHT22;15167;1.318;103.762;2023-08-31T14:11:24;29.10;1.00
27781;DHT22;15167;1.318;103.762;2023-08-31T14:13:51;29.10;1.00
27781;DHT22;15167;1.318;103.762;2023-08-31T14:16:18;29.00;1.00
27781;DHT22;15167;1.318;103.762;2023-08-31T14:18:45;29.00;99.90
27781;DHT22;15167;1.318;103.762;2023-08-31T14:21:15;29.00;1.00
27781;DHT22;15167;1.318;103.762;2023-08-31T14:23:42;29.00;1.00
27781;DHT22;15167;1.318;103.762;2023-08-31T14:26:09;29.00;1.00
27781;DHT22;15167;1.318;103.762;2023-08-31T14:28:37;29.00;1.00
27781;DHT22;15167;1.318;103.762;2023-08-31T14:31:05;29.00;1.00
27781;DHT22;15167;1.318;103.762;2023-08-31T14:33:32;29.00;8.90
27781;DHT22;15167;1.318;103.762;2023-08-31T14:35:58;28.90;85.70
27781;DHT22;15167;1.318;103.762;2023-08-31T14:38:25;28.90;99.90
27781;DHT22;15167;1.318;103.762;2023-08-31T14:40:52;28.90;99.90
27781;DHT22;15167;1.318;103.762;2023-08-31T14:43:18;29.00;99.90
27781;DHT22;15167;1.318;103.762;2023-08-31T14:45:47;28.90;99.90
27781;DHT22;15167;1.318;103.762;2023-08-31T14:48:13;28.90;99.90
27781;DHT22;15167;1.318;103.762;2023-08-31T14:50:44;29.00;98.30
27781;DHT22;15167;1.318;103.762;2023-08-31T14:53:11;28.90;99.90
27781;DHT22;15167;1.318;103.762;2023-08-31T14:55:38;28.90;99.90
27781;DHT22;15167;1.318;103.762;2023-08-31T14:58:05;28.90;99.90
27781;DHT22;15167;1.318;103.762;2023-08-31T15:00:32;28.90;99.90
27781;DHT22;15167;1.318;103.762;2023-08-31T15:02:58;28.90;99.90
27781;DHT22;15167;1.318;103.762;2023-08-31T15:05:25;28.90;99.90
27781;DHT22;15167;1.318;103.762;2023-08-31T15:07:52;28.80;99.90
27781;DHT22;15167;1.318;103.762;2023-08-31T15:10:18;28.90;99.90
27781;DHT22;15167;1.318;103.762;2023-08-31T15:12:45;28.90;99.90
27781;DHT22;15167;1.318;103.762;2023-08-31T15:15:11;28.90;99.90
27781;DHT22;15167;1.318;103.762;2023-08-31T15:17:38;28.80;99.90
27781;DHT22;15167;1.318;103.762;2023-08-31T15:20:05;28.80;99.90
27781;DHT22;15167;1.318;103.762;2023-08-31T15:22:34;28.80;99.90
27781;DHT22;15167;1.318;103.762;2023-08-31T15:25:01;28.80;99.90
27781;DHT22;15167;1.318;103.762;2023-08-31T15:27:27;28.80;99.90
27781;DHT22;15167;1.318;103.762;2023-08-31T15:29:55;28.90;99.90
27781;DHT22;15167;1.318;103.762;2023-08-31T15:32:22;28.80;99.90
27781;DHT22;15167;1.318;103.762;2023-08-31T15:34:48;28.80;99.90
27781;DHT22;15167;1.318;103.762;2023-08-31T15:37:15;28.80;99.90
27781;DHT22;15167;1.318;103.762;2023-08-31T15:39:41;28.80;1.00
27781;DHT22;15167;1.318;103.762;2023-08-31T15:42:08;28.80;1.00